sensor_id;sensor_type;location;lat;lon;timestamp;pressure;altitude;pressure_sealevel;temperature
45701;BMP280;36277;32.852;-116.998;2022-11-04T00:01:48;100396.00;;;25.88
45701;BMP280;36277;32.852;-116.998;2022-11-04T00:04:16;100389.03;;;25.92
45701;BMP280;36277;32.852;-116.998;2022-11-04T00:06:43;100396.47;;;25.92
45701;BMP280;36277;32.852;-116.998;2022-11-04T00:09:12;100392.84;;;25.91
45701;BMP280;36277;32.852;-116.998;2022-11-04T00:11:38;100397.59;;;25.97
45701;BMP280;36277;32.852;-116.998;2022-11-04T00:14:23;100401.84;;;26.00
45701;BMP280;36277;32.852;-116.998;2022-11-04T00:16:49;100408.88;;;26.02
45701;BMP280;36277;32.852;-116.998;2022-11-04T00:19:34;100412.06;;;25.99
45701;BMP280;36277;32.852;-116.998;2022-11-04T00:22:19;100411.00;;;26.00
45701;BMP280;36277;32.852;-116.998;2022-11-04T00:25:04;100415.91;;;25.98
45701;BMP280;36277;32.852;-116.998;2022-11-04T00:27:48;100420.78;;;25.96
45701;BMP280;36277;32.852;-116.998;2022-11-04T00:30:33;100423.31;;;25.98
45701;BMP280;36277;32.852;-116.998;2022-11-04T00:32:59;100429.72;;;25.98
45701;BMP280;36277;32.852;-116.998;2022-11-04T00:35:51;100423.97;;;26.00
45701;BMP280;36277;32.852;-116.998;2022-11-04T00:38:17;100426.09;;;25.98
45701;BMP280;36277;32.852;-116.998;2022-11-04T00:40:44;100426.97;;;25.98
45701;BMP280;36277;32.852;-116.998;2022-11-04T00:43:10;100439.09;;;25.97
45701;BMP280;36277;32.852;-116.998;2022-11-04T00:45:36;100443.56;;;25.98
45701;BMP280;36277;32.852;-116.998;2022-11-04T00:48:03;100439.09;;;25.97
45701;BMP280;36277;32.852;-116.998;2022-11-04T00:50:29;100438.22;;;25.97
45701;BMP280;36277;32.852;-116.998;2022-11-04T00:53:00;100435.03;;;26.00
45701;BMP280;36277;32.852;-116.998;2022-11-04T00:55:28;100436.50;;;25.96
45701;BMP280;36277;32.852;-116.998;2022-11-04T00:57:54;100440.13;;;25.96
45701;BMP280;36277;32.852;-116.998;2022-11-04T01:00:20;100439.75;;;25.99
45701;BMP280;36277;32.852;-116.998;2022-11-04T01:02:47;100435.25;;;25.98
45701;BMP280;36277;32.852;-116.998;2022-11-04T01:05:13;100428.69;;;25.99
45701;BMP280;36277;32.852;-116.998;2022-11-04T01:07:40;100447.16;;;25.99
45701;BMP280;36277;32.852;-116.998;2022-11-04T01:10:07;100450.81;;;25.99
45701;BMP280;36277;32.852;-116.998;2022-11-04T01:12:33;100455.25;;;26.00
45701;BMP280;36277;32.852;-116.998;2022-11-04T01:15:00;100468.03;;;26.01
45701;BMP280;36277;32.852;-116.998;2022-11-04T01:17:26;100469.09;;;26.00
45701;BMP280;36277;32.852;-116.998;2022-11-04T01:19:52;100459.28;;;25.98
45701;BMP280;36277;32.852;-116.998;2022-11-04T01:22:19;100463.97;;;25.97
45701;BMP280;36277;32.852;-116.998;2022-11-04T01:24:45;100467.41;;;25.99
45701;BMP280;36277;32.852;-116.998;2022-11-04T01:27:11;100466.09;;;25.95
45701;BMP280;36277;32.852;-116.998;2022-11-04T01:29:37;100470.28;;;25.91
45701;BMP280;36277;32.852;-116.998;2022-11-04T01:32:04;100478.19;;;25.94
45701;BMP280;36277;32.852;-116.998;2022-11-04T01:34:30;100486.50;;;25.94
45701;BMP280;36277;32.852;-116.998;2022-11-04T01:36:56;100486.09;;;25.97
45701;BMP280;36277;32.852;-116.998;2022-11-04T01:39:23;100484.38;;;25.96
45701;BMP280;36277;32.852;-116.998;2022-11-04T01:41:52;100485.22;;;25.97
45701;BMP280;36277;32.852;-116.998;2022-11-04T01:47:17;100499.28;;;25.95
45701;BMP280;36277;32.852;-116.998;2022-11-04T01:49:48;100503.47;;;25.91
45701;BMP280;36277;32.852;-116.998;2022-11-04T01:52:33;100517.09;;;25.93
45701;BMP280;36277;32.852;-116.998;2022-11-04T01:55:07;100511.94;;;25.90
45701;BMP280;36277;32.852;-116.998;2022-11-04T01:57:40;100513.50;;;25.92
45701;BMP280;36277;32.852;-116.998;2022-11-04T02:00:08;100524.56;;;25.92
45701;BMP280;36277;32.852;-116.998;2022-11-04T02:05:20;100541.53;;;25.89
45701;BMP280;36277;32.852;-116.998;2022-11-04T02:07:50;100548.13;;;25.88
45701;BMP280;36277;32.852;-116.998;2022-11-04T02:10:21;100550.88;;;25.88
45701;BMP280;36277;32.852;-116.998;2022-11-04T02:12:48;100543.84;;;25.86
45701;BMP280;36277;32.852;-116.998;2022-11-04T02:21:05;100559.09;;;25.82
45701;BMP280;36277;32.852;-116.998;2022-11-04T02:23:41;100548.22;;;25.80
45701;BMP280;36277;32.852;-116.998;2022-11-04T02:32:15;100569.97;;;25.83
45701;BMP280;36277;32.852;-116.998;2022-11-04T02:43:22;100587.88;;;25.87
45701;BMP280;36277;32.852;-116.998;2022-11-04T02:45:58;100586.25;;;25.93
45701;BMP280;36277;32.852;-116.998;2022-11-04T02:48:38;100582.25;;;25.95
45701;BMP280;36277;32.852;-116.998;2022-11-04T02:51:32;100588.44;;;25.97
45701;BMP280;36277;32.852;-116.998;2022-11-04T02:56:36;100592.44;;;25.95
45701;BMP280;36277;32.852;-116.998;2022-11-04T02:59:12;100595.03;;;25.96
45701;BMP280;36277;32.852;-116.998;2022-11-04T03:01:41;100598.47;;;25.98
45701;BMP280;36277;32.852;-116.998;2022-11-04T03:04:20;100600.63;;;26.03
45701;BMP280;36277;32.852;-116.998;2022-11-04T03:06:50;100606.75;;;25.98
45701;BMP280;36277;32.852;-116.998;2022-11-04T03:09:20;100610.38;;;25.99
45701;BMP280;36277;32.852;-116.998;2022-11-04T03:11:56;100609.75;;;26.03
45701;BMP280;36277;32.852;-116.998;2022-11-04T03:14:51;100622.94;;;26.01
45701;BMP280;36277;32.852;-116.998;2022-11-04T03:17:34;100621.22;;;26.00
45701;BMP280;36277;32.852;-116.998;2022-11-04T03:20:06;100620.59;;;25.98
45701;BMP280;36277;32.852;-116.998;2022-11-04T03:22:35;100620.59;;;25.98
45701;BMP280;36277;32.852;-116.998;2022-11-04T03:25:05;100612.91;;;26.00
45701;BMP280;36277;32.852;-116.998;2022-11-04T03:27:44;100605.28;;;26.02
45701;BMP280;36277;32.852;-116.998;2022-11-04T03:30:17;100609.97;;;26.02
45701;BMP280;36277;32.852;-116.998;2022-11-04T03:35:24;100605.41;;;25.94
45701;BMP280;36277;32.852;-116.998;2022-11-04T03:37:51;100604.38;;;25.95
45701;BMP280;36277;32.852;-116.998;2022-11-04T03:40:19;100609.91;;;25.95
45701;BMP280;36277;32.852;-116.998;2022-11-04T03:42:56;100620.09;;;25.95
45701;BMP280;36277;32.852;-116.998;2022-11-04T03:45:25;100625.34;;;25.90
45701;BMP280;36277;32.852;-116.998;2022-11-04T03:47:52;100628.50;;;25.87
45701;BMP280;36277;32.852;-116.998;2022-11-04T03:52:45;100633.94;;;25.80
45701;BMP280;36277;32.852;-116.998;2022-11-04T03:55:11;100640.88;;;25.76
45701;BMP280;36277;32.852;-116.998;2022-11-04T03:57:51;100633.84;;;25.74
45701;BMP280;36277;32.852;-116.998;2022-11-04T04:00:21;100639.06;;;25.69
45701;BMP280;36277;32.852;-116.998;2022-11-04T04:03:02;100639.28;;;25.67
45701;BMP280;36277;32.852;-116.998;2022-11-04T04:08:34;100632.34;;;25.57
45701;BMP280;36277;32.852;-116.998;2022-11-04T04:16:31;100643.00;;;25.45
45701;BMP280;36277;32.852;-116.998;2022-11-04T04:19:11;100645.41;;;25.48
45701;BMP280;36277;32.852;-116.998;2022-11-04T04:24:14;100657.22;;;25.42
45701;BMP280;36277;32.852;-116.998;2022-11-04T04:27:00;100661.38;;;25.38
45701;BMP280;36277;32.852;-116.998;2022-11-04T04:29:47;100657.75;;;25.38
45701;BMP280;36277;32.852;-116.998;2022-11-04T04:32:15;100657.97;;;25.36
45701;BMP280;36277;32.852;-116.998;2022-11-04T04:34:43;100657.97;;;25.36
45701;BMP280;36277;32.852;-116.998;2022-11-04T04:37:22;100659.69;;;25.37
45701;BMP280;36277;32.852;-116.998;2022-11-04T04:40:11;100666.63;;;25.33
45701;BMP280;36277;32.852;-116.998;2022-11-04T04:42:57;100673.94;;;25.27
45701;BMP280;36277;32.852;-116.998;2022-11-04T04:45:42;100683.94;;;25.27
45701;BMP280;36277;32.852;-116.998;2022-11-04T04:48:13;100689.69;;;25.26
45701;BMP280;36277;32.852;-116.998;2022-11-04T04:50:43;100700.34;;;25.29
45701;BMP280;36277;32.852;-116.998;2022-11-04T04:53:13;100703.50;;;25.26
45701;BMP280;36277;32.852;-116.998;2022-11-04T04:55:39;100708.34;;;25.24
45701;BMP280;36277;32.852;-116.998;2022-11-04T04:58:05;100712.16;;;25.23
45701;BMP280;36277;32.852;-116.998;2022-11-04T05:00:32;100718.72;;;25.22
45701;BMP280;36277;32.852;-116.998;2022-11-04T05:02:58;100719.09;;;25.19
45701;BMP280;36277;32.852;-116.998;2022-11-04T05:05:24;100721.00;;;25.19
45701;BMP280;36277;32.852;-116.998;2022-11-04T05:07:51;100715.66;;;25.17
45701;BMP280;36277;32.852;-116.998;2022-11-04T05:10:17;100726.91;;;25.16
45701;BMP280;36277;32.852;-116.998;2022-11-04T05:12:44;100727.59;;;25.18
45701;BMP280;36277;32.852;-116.998;2022-11-04T05:15:29;100720.84;;;25.12
45701;BMP280;36277;32.852;-116.998;2022-11-04T05:17:58;100728.28;;;25.12
45701;BMP280;36277;32.852;-116.998;2022-11-04T05:20:25;100730.38;;;25.10
45701;BMP280;36277;32.852;-116.998;2022-11-04T05:22:52;100730.38;;;25.10
45701;BMP280;36277;32.852;-116.998;2022-11-04T05:25:19;100724.16;;;25.08
45701;BMP280;36277;32.852;-116.998;2022-11-04T05:27:45;100723.50;;;25.06
45701;BMP280;36277;32.852;-116.998;2022-11-04T05:30:11;100724.53;;;25.05
45701;BMP280;36277;32.852;-116.998;2022-11-04T05:32:37;100726.25;;;25.06
45701;BMP280;36277;32.852;-116.998;2022-11-04T05:35:04;100722.16;;;25.02
45701;BMP280;36277;32.852;-116.998;2022-11-04T05:37:30;100732.34;;;25.01
45701;BMP280;36277;32.852;-116.998;2022-11-04T05:39:56;100738.03;;;25.00
45701;BMP280;36277;32.852;-116.998;2022-11-04T05:42:23;100742.72;;;24.99
45701;BMP280;36277;32.852;-116.998;2022-11-04T05:44:49;100742.25;;;24.96
45701;BMP280;36277;32.852;-116.998;2022-11-04T05:47:15;100744.13;;;24.95
45701;BMP280;36277;32.852;-116.998;2022-11-04T05:49:41;100759.19;;;24.93
45701;BMP280;36277;32.852;-116.998;2022-11-04T05:52:08;100745.75;;;24.90
45701;BMP280;36277;32.852;-116.998;2022-11-04T05:54:36;100748.50;;;24.90
45701;BMP280;36277;32.852;-116.998;2022-11-04T05:57:04;100736.09;;;24.86
45701;BMP280;36277;32.852;-116.998;2022-11-04T05:59:30;100736.09;;;24.86
45701;BMP280;36277;32.852;-116.998;2022-11-04T06:01:56;100742.66;;;24.85
45701;BMP280;36277;32.852;-116.998;2022-11-04T06:04:22;100734.25;;;24.78
45701;BMP280;36277;32.852;-116.998;2022-11-04T06:06:49;100739.59;;;24.80
45701;BMP280;36277;32.852;-116.998;2022-11-04T06:09:15;100751.88;;;24.77
45701;BMP280;36277;32.852;-116.998;2022-11-04T06:11:41;100751.19;;;24.75
45701;BMP280;36277;32.852;-116.998;2022-11-04T06:14:08;100755.16;;;24.73
45701;BMP280;36277;32.852;-116.998;2022-11-04T06:16:34;100749.84;;;24.71
45701;BMP280;36277;32.852;-116.998;2022-11-04T06:19:00;100750.72;;;24.72
45701;BMP280;36277;32.852;-116.998;2022-11-04T06:21:31;100754.13;;;24.74
45701;BMP280;36277;32.852;-116.998;2022-11-04T06:23:59;100758.31;;;24.70
45701;BMP280;36277;32.852;-116.998;2022-11-04T06:26:28;100756.59;;;24.69
45701;BMP280;36277;32.852;-116.998;2022-11-04T06:28:56;100753.50;;;24.64
45701;BMP280;36277;32.852;-116.998;2022-11-04T06:31:22;100757.47;;;24.61
45701;BMP280;36277;32.852;-116.998;2022-11-04T06:33:48;100752.16;;;24.60
45701;BMP280;36277;32.852;-116.998;2022-11-04T06:36:15;100755.13;;;24.58
45701;BMP280;36277;32.852;-116.998;2022-11-04T06:38:42;100756.31;;;24.56
45701;BMP280;36277;32.852;-116.998;2022-11-04T06:41:11;100763.75;;;24.55
45701;BMP280;36277;32.852;-116.998;2022-11-04T06:43:38;100754.28;;;24.50
45701;BMP280;36277;32.852;-116.998;2022-11-04T06:46:04;100760.84;;;24.49
45701;BMP280;36277;32.852;-116.998;2022-11-04T06:48:31;100762.91;;;24.47
45701;BMP280;36277;32.852;-116.998;2022-11-04T06:51:00;100765.00;;;24.45
45701;BMP280;36277;32.852;-116.998;2022-11-04T06:53:27;100764.31;;;24.43
45701;BMP280;36277;32.852;-116.998;2022-11-04T06:56:01;100760.50;;;24.44
45701;BMP280;36277;32.852;-116.998;2022-11-04T06:58:28;100758.47;;;24.38
45701;BMP280;36277;32.852;-116.998;2022-11-04T07:00:54;100765.03;;;24.37
45701;BMP280;36277;32.852;-116.998;2022-11-04T07:03:21;100766.06;;;24.36
45701;BMP280;36277;32.852;-116.998;2022-11-04T07:05:47;100761.38;;;24.36
45701;BMP280;36277;32.852;-116.998;2022-11-04T07:08:13;100760.91;;;24.33
45701;BMP280;36277;32.852;-116.998;2022-11-04T07:10:40;100764.69;;;24.32
45701;BMP280;36277;32.852;-116.998;2022-11-04T07:13:06;100755.94;;;24.28
45701;BMP280;36277;32.852;-116.998;2022-11-04T07:15:33;100752.31;;;24.28
45701;BMP280;36277;32.852;-116.998;2022-11-04T07:17:59;100759.88;;;24.26
45701;BMP280;36277;32.852;-116.998;2022-11-04T07:20:26;100762.84;;;24.24
45701;BMP280;36277;32.852;-116.998;2022-11-04T07:22:55;100758.19;;;24.25
45701;BMP280;36277;32.852;-116.998;2022-11-04T07:25:22;100764.44;;;24.19
45701;BMP280;36277;32.852;-116.998;2022-11-04T07:27:48;100769.06;;;24.18
45701;BMP280;36277;32.852;-116.998;2022-11-04T07:30:14;100766.66;;;24.15
45701;BMP280;36277;32.852;-116.998;2022-11-04T07:32:41;100772.38;;;24.14
45701;BMP280;36277;32.852;-116.998;2022-11-04T07:35:07;100774.25;;;24.13
45701;BMP280;36277;32.852;-116.998;2022-11-04T07:37:33;100771.84;;;24.11
45701;BMP280;36277;32.852;-116.998;2022-11-04T07:40:00;100780.31;;;24.09
45701;BMP280;36277;32.852;-116.998;2022-11-04T07:42:26;100776.03;;;24.07
45701;BMP280;36277;32.852;-116.998;2022-11-04T07:44:52;100773.44;;;24.05
45701;BMP280;36277;32.852;-116.998;2022-11-04T07:47:18;100770.00;;;24.03
45701;BMP280;36277;32.852;-116.998;2022-11-04T07:49:45;100764.84;;;24.00
45701;BMP280;36277;32.852;-116.998;2022-11-04T07:52:11;100764.84;;;24.00
45701;BMP280;36277;32.852;-116.998;2022-11-04T07:54:37;100762.25;;;23.99
45701;BMP280;36277;32.852;-116.998;2022-11-04T07:57:03;100770.69;;;23.97
45701;BMP280;36277;32.852;-116.998;2022-11-04T07:59:29;100760.91;;;23.95
45701;BMP280;36277;32.852;-116.998;2022-11-04T08:01:56;100763.84;;;23.93
45701;BMP280;36277;32.852;-116.998;2022-11-04T08:04:22;100769.72;;;23.90
45701;BMP280;36277;32.852;-116.998;2022-11-04T08:06:51;100773.50;;;23.89
45701;BMP280;36277;32.852;-116.998;2022-11-04T08:09:18;100771.78;;;23.88
45701;BMP280;36277;32.852;-116.998;2022-11-04T08:11:44;100768.34;;;23.86
45701;BMP280;36277;32.852;-116.998;2022-11-04T08:14:10;100777.66;;;23.85
45701;BMP280;36277;32.852;-116.998;2022-11-04T08:16:39;100774.00;;;23.85
45701;BMP280;36277;32.852;-116.998;2022-11-04T08:19:05;100780.94;;;23.81
45701;BMP280;36277;32.852;-116.998;2022-11-04T08:21:32;100794.72;;;23.81
45701;BMP280;36277;32.852;-116.998;2022-11-04T08:23:59;100785.78;;;23.79
45701;BMP280;36277;32.852;-116.998;2022-11-04T08:26:28;100783.13;;;23.77
45701;BMP280;36277;32.852;-116.998;2022-11-04T08:28:55;100778.84;;;23.75
45701;BMP280;36277;32.852;-116.998;2022-11-04T08:31:24;100787.13;;;23.75
45701;BMP280;36277;32.852;-116.998;2022-11-04T08:33:51;100789.34;;;23.71
45701;BMP280;36277;32.852;-116.998;2022-11-04T08:36:30;100793.81;;;23.72
45701;BMP280;36277;32.852;-116.998;2022-11-04T08:38:57;100794.56;;;23.66
45701;BMP280;36277;32.852;-116.998;2022-11-04T08:41:26;100792.84;;;23.65
45701;BMP280;36277;32.852;-116.998;2022-11-04T08:43:55;100798.50;;;23.64
45701;BMP280;36277;32.852;-116.998;2022-11-04T08:46:22;100802.47;;;23.61
45701;BMP280;36277;32.852;-116.998;2022-11-04T08:48:48;100800.91;;;23.59
45701;BMP280;36277;32.852;-116.998;2022-11-04T08:51:17;100806.28;;;23.60
45701;BMP280;36277;32.852;-116.998;2022-11-04T08:53:44;100802.81;;;23.58
45701;BMP280;36277;32.852;-116.998;2022-11-04T08:56:17;100792.00;;;23.57
45701;BMP280;36277;32.852;-116.998;2022-11-04T08:58:43;100800.41;;;23.55
45701;BMP280;36277;32.852;-116.998;2022-11-04T09:01:09;100795.09;;;23.54
45701;BMP280;36277;32.852;-116.998;2022-11-04T09:03:37;100803.50;;;23.52
45701;BMP280;36277;32.852;-116.998;2022-11-04T09:06:07;100799.03;;;23.51
45701;BMP280;36277;32.852;-116.998;2022-11-04T09:08:33;100798.34;;;23.49
45701;BMP280;36277;32.852;-116.998;2022-11-04T09:11:06;100809.38;;;23.49
45701;BMP280;36277;32.852;-116.998;2022-11-04T09:13:32;100811.63;;;23.46
45701;BMP280;36277;32.852;-116.998;2022-11-04T09:15:58;100809.72;;;23.46
45701;BMP280;36277;32.852;-116.998;2022-11-04T09:18:25;100808.19;;;23.44
45701;BMP280;36277;32.852;-116.998;2022-11-04T09:20:51;100815.94;;;23.40
45701;BMP280;36277;32.852;-116.998;2022-11-04T09:23:17;100805.25;;;23.37
45701;BMP280;36277;32.852;-116.998;2022-11-04T09:25:44;100811.81;;;23.36
45701;BMP280;36277;32.852;-116.998;2022-11-04T09:28:10;100809.19;;;23.35
45701;BMP280;36277;32.852;-116.998;2022-11-04T09:30:37;100818.50;;;23.34
45701;BMP280;36277;32.852;-116.998;2022-11-04T09:33:03;100823.16;;;23.33
45701;BMP280;36277;32.852;-116.998;2022-11-04T09:35:29;100825.03;;;23.33
45701;BMP280;36277;32.852;-116.998;2022-11-04T09:37:58;100821.63;;;23.31
45701;BMP280;36277;32.852;-116.998;2022-11-04T09:40:26;100831.06;;;23.28
45701;BMP280;36277;32.852;-116.998;2022-11-04T09:45:39;100835.88;;;23.26
45701;BMP280;36277;32.852;-116.998;2022-11-04T09:48:10;100830.72;;;23.23
45701;BMP280;36277;32.852;-116.998;2022-11-04T09:50:51;100831.25;;;23.19
45701;BMP280;36277;32.852;-116.998;2022-11-04T09:53:46;100828.31;;;23.20
45701;BMP280;36277;32.852;-116.998;2022-11-04T09:56:15;100835.56;;;23.13
45701;BMP280;36277;32.852;-116.998;2022-11-04T09:58:42;100829.84;;;23.15
45701;BMP280;36277;32.852;-116.998;2022-11-04T10:04:07;100826.25;;;23.14
45701;BMP280;36277;32.852;-116.998;2022-11-04T10:15:22;100834.13;;;23.01
45701;BMP280;36277;32.852;-116.998;2022-11-04T10:26:18;100817.94;;;22.98
45701;BMP280;36277;32.852;-116.998;2022-11-04T10:29:07;100810.19;;;22.94
45701;BMP280;36277;32.852;-116.998;2022-11-04T10:31:38;100804.31;;;22.89
45701;BMP280;36277;32.852;-116.998;2022-11-04T10:34:11;100804.31;;;22.89
45701;BMP280;36277;32.852;-116.998;2022-11-04T10:36:40;100805.34;;;22.88
45701;BMP280;36277;32.852;-116.998;2022-11-04T10:39:24;100803.47;;;22.89
45701;BMP280;36277;32.852;-116.998;2022-11-04T10:41:50;100797.78;;;22.82
45701;BMP280;36277;32.852;-116.998;2022-11-04T10:44:26;100805.69;;;22.85
45701;BMP280;36277;32.852;-116.998;2022-11-04T10:52:08;100814.66;;;22.79
45701;BMP280;36277;32.852;-116.998;2022-11-04T10:54:41;100812.06;;;22.78
45701;BMP280;36277;32.852;-116.998;2022-11-04T10:57:09;100825.13;;;22.76
45701;BMP280;36277;32.852;-116.998;2022-11-04T11:02:17;100822.69;;;22.73
45701;BMP280;36277;32.852;-116.998;2022-11-04T11:04:44;100822.69;;;22.73
45701;BMP280;36277;32.852;-116.998;2022-11-04T11:07:14;100829.09;;;22.73
45701;BMP280;36277;32.852;-116.998;2022-11-04T11:09:48;100829.22;;;22.72
45701;BMP280;36277;32.852;-116.998;2022-11-04T11:12:24;100830.94;;;22.73
45701;BMP280;36277;32.852;-116.998;2022-11-04T11:17:56;100827.88;;;22.68
45701;BMP280;36277;32.852;-116.998;2022-11-04T11:20:24;100831.97;;;22.64
45701;BMP280;36277;32.852;-116.998;2022-11-04T11:22:51;100832.81;;;22.64
45701;BMP280;36277;32.852;-116.998;2022-11-04T11:25:31;100836.28;;;22.66
45701;BMP280;36277;32.852;-116.998;2022-11-04T11:28:12;100840.25;;;22.64
45701;BMP280;36277;32.852;-116.998;2022-11-04T11:33:20;100845.88;;;22.62
45701;BMP280;36277;32.852;-116.998;2022-11-04T11:35:52;100849.84;;;22.60
45701;BMP280;36277;32.852;-116.998;2022-11-04T11:38:28;100860.66;;;22.61
45701;BMP280;36277;32.852;-116.998;2022-11-04T11:41:11;100863.75;;;22.58
45701;BMP280;36277;32.852;-116.998;2022-11-04T11:43:44;100867.91;;;22.54
45701;BMP280;36277;32.852;-116.998;2022-11-04T11:46:12;100866.00;;;22.55
45701;BMP280;36277;32.852;-116.998;2022-11-04T11:48:43;100869.78;;;22.54
45701;BMP280;36277;32.852;-116.998;2022-11-04T11:51:23;100875.28;;;22.54
45701;BMP280;36277;32.852;-116.998;2022-11-04T11:56:43;100877.97;;;22.46
45701;BMP280;36277;32.852;-116.998;2022-11-04T12:05:01;100901.69;;;22.39
45701;BMP280;36277;32.852;-116.998;2022-11-04T12:10:31;100907.19;;;22.39
45701;BMP280;36277;32.852;-116.998;2022-11-04T12:13:19;100906.50;;;22.37
45701;BMP280;36277;32.852;-116.998;2022-11-04T12:21:27;100928.09;;;22.32
45701;BMP280;36277;32.852;-116.998;2022-11-04T12:24:02;100922.91;;;22.29
45701;BMP280;36277;32.852;-116.998;2022-11-04T12:32:39;100925.97;;;22.26
45701;BMP280;36277;32.852;-116.998;2022-11-04T12:40:55;100922.31;;;22.17
45701;BMP280;36277;32.852;-116.998;2022-11-04T12:43:35;100922.50;;;22.16
45701;BMP280;36277;32.852;-116.998;2022-11-04T12:46:15;100929.88;;;22.15
45701;BMP280;36277;32.852;-116.998;2022-11-04T12:53:52;100941.38;;;22.11
45701;BMP280;36277;32.852;-116.998;2022-11-04T12:56:30;100954.41;;;22.09
45701;BMP280;36277;32.852;-116.998;2022-11-04T13:00:17;100945.59;;;22.05
45701;BMP280;36277;32.852;-116.998;2022-11-04T13:07:40;100931.31;;;22.02
45701;BMP280;36277;32.852;-116.998;2022-11-04T13:10:54;100936.44;;;21.97
45701;BMP280;36277;32.852;-116.998;2022-11-04T13:13:23;100940.19;;;21.96
45701;BMP280;36277;32.852;-116.998;2022-11-04T13:15:56;100934.72;;;21.96
45701;BMP280;36277;32.852;-116.998;2022-11-04T13:18:27;100929.22;;;21.96
45701;BMP280;36277;32.852;-116.998;2022-11-04T13:21:07;100934.72;;;21.96
45701;BMP280;36277;32.852;-116.998;2022-11-04T13:23:58;100936.75;;;21.94
45701;BMP280;36277;32.852;-116.998;2022-11-04T13:26:26;100931.91;;;21.88
45701;BMP280;36277;32.852;-116.998;2022-11-04T13:29:09;100933.16;;;21.93
45701;BMP280;36277;32.852;-116.998;2022-11-04T13:34:46;100944.47;;;21.90
45701;BMP280;36277;32.852;-116.998;2022-11-04T13:37:48;100942.91;;;21.88
45701;BMP280;36277;32.852;-116.998;2022-11-04T13:40:21;100939.28;;;21.88
45701;BMP280;36277;32.852;-116.998;2022-11-04T13:43:06;100942.91;;;21.88
45701;BMP280;36277;32.852;-116.998;2022-11-04T13:45:58;100950.75;;;21.83
45701;BMP280;36277;32.852;-116.998;2022-11-04T13:48:29;100954.22;;;21.85
45701;BMP280;36277;32.852;-116.998;2022-11-04T13:51:07;100957.09;;;21.84
45701;BMP280;36277;32.852;-116.998;2022-11-04T13:53:55;100955.56;;;21.81
45701;BMP280;36277;32.852;-116.998;2022-11-04T13:56:28;100959.31;;;21.80
45701;BMP280;36277;32.852;-116.998;2022-11-04T13:58:59;100967.03;;;21.77
45701;BMP280;36277;32.852;-116.998;2022-11-04T14:01:30;100965.13;;;21.77
45701;BMP280;36277;32.852;-116.998;2022-11-04T14:14:49;100979.81;;;21.68
45701;BMP280;36277;32.852;-116.998;2022-11-04T14:25:37;100986.22;;;21.94
45701;BMP280;36277;32.852;-116.998;2022-11-04T14:30:49;101005.84;;;22.16
45701;BMP280;36277;32.852;-116.998;2022-11-04T14:39:20;101031.59;;;22.58
45701;BMP280;36277;32.852;-116.998;2022-11-04T14:41:57;101028.25;;;22.72
45701;BMP280;36277;32.852;-116.998;2022-11-04T14:44:42;101030.94;;;22.90
45701;BMP280;36277;32.852;-116.998;2022-11-04T14:47:29;101027.53;;;23.03
45701;BMP280;36277;32.852;-116.998;2022-11-04T14:52:37;101039.38;;;23.29
45701;BMP280;36277;32.852;-116.998;2022-11-04T14:57:53;101037.25;;;23.57
45701;BMP280;36277;32.852;-116.998;2022-11-04T15:00:27;101035.69;;;23.62
45701;BMP280;36277;32.852;-116.998;2022-11-04T15:05:36;101035.06;;;23.84
45701;BMP280;36277;32.852;-116.998;2022-11-04T15:13:50;101052.16;;;24.19
45701;BMP280;36277;32.852;-116.998;2022-11-04T15:16:27;101054.59;;;24.30
45701;BMP280;36277;32.852;-116.998;2022-11-04T15:18:56;101048.53;;;24.43
45701;BMP280;36277;32.852;-116.998;2022-11-04T15:21:24;101046.47;;;24.61
45701;BMP280;36277;32.852;-116.998;2022-11-04T15:23:52;101031.91;;;24.75
45701;BMP280;36277;32.852;-116.998;2022-11-04T15:28:50;101054.69;;;24.77
45701;BMP280;36277;32.852;-116.998;2022-11-04T15:31:19;101061.25;;;24.76
45701;BMP280;36277;32.852;-116.998;2022-11-04T15:33:51;101070.41;;;24.76
45701;BMP280;36277;32.852;-116.998;2022-11-04T15:36:25;101078.00;;;24.74
45701;BMP280;36277;32.852;-116.998;2022-11-04T15:39:04;101078.56;;;24.70
45701;BMP280;36277;32.852;-116.998;2022-11-04T15:41:31;101078.03;;;24.66
45701;BMP280;36277;32.852;-116.998;2022-11-04T15:44:26;101080.97;;;24.65
45701;BMP280;36277;32.852;-116.998;2022-11-04T15:46:58;101081.31;;;24.62
45701;BMP280;36277;32.852;-116.998;2022-11-04T15:51:59;101076.81;;;24.61
45701;BMP280;36277;32.852;-116.998;2022-11-04T15:54:33;101080.81;;;24.58
45701;BMP280;36277;32.852;-116.998;2022-11-04T15:59:38;101084.75;;;24.48
45701;BMP280;36277;32.852;-116.998;2022-11-04T16:02:23;101084.75;;;24.48
45701;BMP280;36277;32.852;-116.998;2022-11-04T16:05:27;101081.66;;;24.43
45701;BMP280;36277;32.852;-116.998;2022-11-04T16:07:52;101074.22;;;24.35
45701;BMP280;36277;32.852;-116.998;2022-11-04T16:10:35;101073.03;;;24.38
45701;BMP280;36277;32.852;-116.998;2022-11-04T16:13:20;101072.34;;;24.36
45701;BMP280;36277;32.852;-116.998;2022-11-04T16:18:47;101061.97;;;24.30
45701;BMP280;36277;32.852;-116.998;2022-11-04T16:24:03;101054.38;;;24.24
45701;BMP280;36277;32.852;-116.998;2022-11-04T16:26:38;101045.59;;;24.20
45701;BMP280;36277;32.852;-116.998;2022-11-04T16:29:08;101036.28;;;24.13
45701;BMP280;36277;32.852;-116.998;2022-11-04T16:31:36;101034.75;;;24.11
45701;BMP280;36277;32.852;-116.998;2022-11-04T16:34:04;101037.84;;;24.08
45701;BMP280;36277;32.852;-116.998;2022-11-04T16:36:33;101041.63;;;24.07
45701;BMP280;36277;32.852;-116.998;2022-11-04T16:39:00;101048.88;;;24.08
45701;BMP280;36277;32.852;-116.998;2022-11-04T16:41:36;101053.53;;;24.08
45701;BMP280;36277;32.852;-116.998;2022-11-04T16:44:04;101051.13;;;24.05